createdAt,value
2019-01-28T00:01:41.238Z,94.40
2019-01-28T00:04:09.048Z,94.21
2019-01-28T00:06:36.770Z,94.15
2019-01-28T00:09:07.435Z,94.56
2019-01-28T00:11:35.118Z,94.79
2019-01-28T00:14:03.343Z,94.73
2019-01-28T00:16:31.103Z,94.64
2019-01-28T00:18:59.141Z,94.70
2019-01-28T00:21:26.872Z,95.13
2019-01-28T00:23:54.591Z,95.29
2019-01-28T00:26:22.277Z,95.35
2019-01-28T00:28:49.860Z,95.23
2019-01-28T00:31:17.852Z,95.75
2019-01-28T00:33:45.437Z,95.66
2019-01-28T00:36:13.234Z,95.72
2019-01-28T00:38:41.889Z,95.51
2019-01-28T00:41:09.535Z,95.49
2019-01-28T00:43:37.183Z,95.89
2019-01-28T00:46:07.756Z,95.73
2019-01-28T00:48:35.415Z,95.97
2019-01-28T00:51:03.156Z,95.85
2019-01-28T00:53:33.736Z,95.87
2019-01-28T00:56:01.312Z,95.83
2019-01-28T00:58:29.865Z,95.95
2019-01-28T01:00:57.521Z,95.95
2019-01-28T01:03:25.222Z,96.03
2019-01-28T01:05:52.760Z,95.90
2019-01-28T01:08:20.450Z,96.26
2019-01-28T01:10:48.171Z,96.20
2019-01-28T01:13:15.966Z,96.13
2019-01-28T01:15:43.573Z,96.13
2019-01-28T01:18:11.283Z,96.44
2019-01-28T01:20:38.868Z,96.44
2019-01-28T01:23:06.512Z,96.18
2019-01-28T01:25:34.060Z,96.05
2019-01-28T01:28:02.526Z,96.05
2019-01-28T01:30:31.116Z,96.08
2019-01-28T01:32:59.160Z,95.94
2019-01-28T01:35:26.752Z,96.22
2019-01-28T01:37:54.396Z,96.21
2019-01-28T01:40:23.056Z,96.30
2019-01-28T01:42:50.705Z,96.27
2019-01-28T01:45:18.404Z,96.18
2019-01-28T01:47:46.210Z,96.28
2019-01-28T01:50:13.917Z,96.32
2019-01-28T01:52:41.602Z,96.21
2019-01-28T01:55:11.038Z,96.16
2019-01-28T01:57:38.637Z,96.02
2019-01-28T02:00:13.775Z,96.17
2019-01-28T02:02:41.342Z,96.58
2019-01-28T02:05:09.424Z,96.36
2019-01-28T02:07:36.987Z,96.23
2019-01-28T02:10:05.747Z,96.09
2019-01-28T02:12:33.487Z,96.60
2019-01-28T02:15:01.226Z,96.56
2019-01-28T02:17:28.924Z,96.46
2019-01-28T02:19:56.573Z,96.52
2019-01-28T02:22:24.179Z,96.43
2019-01-28T02:24:51.854Z,96.54
2019-01-28T02:27:19.394Z,96.70
2019-01-28T02:29:47.133Z,97.03
2019-01-28T02:32:14.795Z,97.28
2019-01-28T02:34:42.444Z,97.46
2019-01-28T02:37:10.026Z,97.65
2019-01-28T02:39:37.743Z,97.90
2019-01-28T02:42:05.358Z,97.83
2019-01-28T02:44:33.053Z,97.74
2019-01-28T02:47:00.615Z,97.77
2019-01-28T02:49:28.258Z,97.71
2019-01-28T02:51:55.856Z,97.68
2019-01-28T02:54:23.558Z,97.40
2019-01-28T02:56:51.164Z,97.22
2019-01-28T02:59:18.866Z,97.20
2019-01-28T03:01:46.413Z,97.04
2019-01-28T03:04:14.067Z,96.81
2019-01-28T03:06:41.708Z,96.98
2019-01-28T03:09:09.359Z,96.74
2019-01-28T03:11:37.110Z,96.58
2019-01-28T03:14:04.954Z,96.71
2019-01-28T03:16:32.567Z,96.59
2019-01-28T03:19:00.347Z,97.02
2019-01-28T03:21:27.915Z,97.30
2019-01-28T03:23:55.638Z,97.34
2019-01-28T03:26:23.245Z,97.26
2019-01-28T03:28:50.888Z,97.33
2019-01-28T03:31:18.539Z,97.34
2019-01-28T03:33:46.193Z,97.53
2019-01-28T03:36:13.825Z,97.39
2019-01-28T03:38:41.540Z,97.33
2019-01-28T03:41:09.236Z,97.42
2019-01-28T03:43:36.870Z,97.42
2019-01-28T03:46:04.411Z,97.59
2019-01-28T03:48:32.092Z,97.42
2019-01-28T03:50:59.697Z,97.30
2019-01-28T03:53:27.527Z,97.46
2019-01-28T03:55:55.191Z,97.67
2019-01-28T03:58:22.933Z,97.81
2019-01-28T04:00:50.597Z,97.73
2019-01-28T04:03:19.222Z,97.58
2019-01-28T04:05:46.837Z,97.56
2019-01-28T04:08:14.572Z,97.22
2019-01-28T04:10:42.167Z,97.20
2019-01-28T04:13:09.823Z,97.21
2019-01-28T04:15:37.536Z,97.38
2019-01-28T04:18:05.169Z,97.50
2019-01-28T04:20:32.817Z,97.33
2019-01-28T04:23:01.137Z,97.50
2019-01-28T04:25:28.745Z,97.52
2019-01-28T04:27:56.402Z,97.40
2019-01-28T04:30:24.553Z,98.39
2019-01-28T04:32:52.229Z,98.48
2019-01-28T04:35:19.938Z,98.27
2019-01-28T04:37:47.602Z,98.42
2019-01-28T04:40:15.743Z,98.58
2019-01-28T04:42:43.391Z,98.50
2019-01-28T04:45:13.314Z,98.39
2019-01-28T04:47:41.107Z,98.78
2019-01-28T04:50:10.781Z,98.66
2019-01-28T04:52:38.457Z,98.72
2019-01-28T04:55:06.255Z,98.56
2019-01-28T04:57:34.038Z,98.59
2019-01-28T05:00:01.761Z,98.64
2019-01-28T05:02:29.596Z,98.55
2019-01-28T05:04:57.381Z,98.87
2019-01-28T05:07:25.090Z,99.12
2019-01-28T05:09:52.762Z,99.17
2019-01-28T05:12:20.560Z,98.92
2019-01-28T05:14:48.286Z,99.02
2019-01-28T05:17:16.068Z,98.87
2019-01-28T05:19:43.726Z,98.95
2019-01-28T05:22:11.402Z,99.25
2019-01-28T05:24:39.000Z,98.80
2019-01-28T05:27:06.772Z,98.81
2019-01-28T05:29:34.455Z,98.51
2019-01-28T05:32:02.161Z,98.40
2019-01-28T05:34:29.847Z,98.87
2019-01-28T05:36:57.534Z,98.67
2019-01-28T05:39:25.183Z,98.54
2019-01-28T05:41:52.812Z,98.58
2019-01-28T05:44:20.383Z,98.69
2019-01-28T05:46:48.016Z,98.51
2019-01-28T05:49:15.537Z,98.53
2019-01-28T05:51:43.220Z,98.62
2019-01-28T05:54:10.865Z,99.16
2019-01-28T05:56:38.610Z,99.18
2019-01-28T05:59:06.334Z,98.87
2019-01-28T06:01:33.918Z,98.72
2019-01-28T06:04:01.535Z,98.73
2019-01-28T06:06:29.212Z,98.70
2019-01-28T06:08:56.898Z,98.49
2019-01-28T06:11:24.494Z,98.31
2019-01-28T06:13:52.498Z,98.93
2019-01-28T06:16:20.090Z,98.89
2019-01-28T06:18:47.775Z,98.92
2019-01-28T06:21:15.344Z,99.05
2019-01-28T06:23:43.021Z,99.05
2019-01-28T06:26:10.579Z,98.85
2019-01-28T06:28:38.151Z,98.62
2019-01-28T06:31:05.796Z,98.55
2019-01-28T06:33:33.451Z,98.40
2019-01-28T06:36:01.724Z,98.66
2019-01-28T06:38:29.371Z,98.57
2019-01-28T06:40:57.025Z,98.47
2019-01-28T06:43:24.796Z,98.99
2019-01-28T06:45:55.319Z,99.68
2019-01-28T06:48:22.999Z,99.62
2019-01-28T06:50:50.599Z,99.57
2019-01-28T06:53:18.255Z,99.46
2019-01-28T06:55:45.911Z,99.27
2019-01-28T06:58:13.508Z,99.23
2019-01-28T07:00:41.169Z,99.16
2019-01-28T07:03:08.870Z,99.01
2019-01-28T07:05:36.549Z,99.18
2019-01-28T07:08:04.678Z,99.01
2019-01-28T07:10:32.432Z,98.87
2019-01-28T07:13:00.004Z,98.69
2019-01-28T07:15:27.634Z,98.68
2019-01-28T07:17:55.365Z,98.49
2019-01-28T07:20:25.950Z,98.41
2019-01-28T07:22:53.657Z,98.62
2019-01-28T07:25:21.437Z,98.29
2019-01-28T07:27:49.114Z,98.16
2019-01-28T07:30:29.469Z,98.09
2019-01-28T07:32:57.041Z,98.00
2019-01-28T07:35:25.083Z,97.70
2019-01-28T07:37:52.827Z,97.60
2019-01-28T07:40:20.605Z,97.57
2019-01-28T07:42:48.381Z,97.54
2019-01-28T07:45:19.045Z,96.87
2019-01-28T07:47:46.799Z,97.14
2019-01-28T07:50:14.664Z,97.19
2019-01-28T07:52:43.410Z,97.14
2019-01-28T07:55:13.295Z,97.07
2019-01-28T07:57:41.337Z,97.06
2019-01-28T08:00:12.845Z,97.10
2019-01-28T08:02:40.535Z,97.28
2019-01-28T08:05:09.280Z,97.56
2019-01-28T08:07:37.244Z,97.31
2019-01-28T08:10:06.566Z,97.51
2019-01-28T08:12:34.210Z,97.96
2019-01-28T08:15:05.961Z,97.64
2019-01-28T08:17:33.680Z,97.65
2019-01-28T08:20:01.437Z,97.80
2019-01-28T08:22:29.289Z,98.05
2019-01-28T08:24:57.058Z,98.05
2019-01-28T08:27:24.823Z,97.45
2019-01-28T08:29:52.514Z,97.33
2019-01-28T08:32:20.103Z,97.47
2019-01-28T08:34:49.485Z,97.86
2019-01-28T08:37:17.399Z,97.66
2019-01-28T08:39:45.158Z,97.31
2019-01-28T08:42:13.294Z,97.06
2019-01-28T08:44:41.053Z,96.86
2019-01-28T08:47:08.646Z,96.66
2019-01-28T08:49:36.317Z,96.72
2019-01-28T08:52:04.031Z,96.57
2019-01-28T08:54:31.681Z,96.49
2019-01-28T08:56:59.301Z,96.44
2019-01-28T08:59:27.008Z,96.30
2019-01-28T09:01:54.733Z,96.34
2019-01-28T09:04:22.336Z,95.94
2019-01-28T09:06:49.984Z,95.73
2019-01-28T09:09:17.598Z,95.25
2019-01-28T09:11:45.176Z,95.07
2019-01-28T09:14:12.824Z,94.99
2019-01-28T09:16:40.395Z,94.38
2019-01-28T09:19:07.948Z,93.97
2019-01-28T09:21:36.634Z,93.84
2019-01-28T09:24:04.325Z,93.60
2019-01-28T09:26:31.916Z,93.14
2019-01-28T09:28:59.728Z,93.12
2019-01-28T09:31:27.383Z,93.08
2019-01-28T09:33:55.120Z,93.44
2019-01-28T09:36:22.842Z,93.26
2019-01-28T09:38:50.426Z,93.10
2019-01-28T09:41:17.985Z,93.26
2019-01-28T09:43:48.439Z,93.52
2019-01-28T09:46:16.048Z,93.70
2019-01-28T09:48:43.625Z,93.46
2019-01-28T09:51:12.365Z,93.40
2019-01-28T09:53:39.964Z,93.16
2019-01-28T09:56:07.513Z,93.14
2019-01-28T09:58:35.250Z,92.40
2019-01-28T10:01:06.651Z,92.36
2019-01-28T10:03:34.372Z,92.67
2019-01-28T10:06:02.387Z,92.27
2019-01-28T10:08:31.934Z,91.70
2019-01-28T10:10:59.582Z,91.39
2019-01-28T10:13:27.149Z,91.57
2019-01-28T10:15:55.212Z,91.54
2019-01-28T10:18:26.264Z,91.28
2019-01-28T10:20:54.000Z,91.34
2019-01-28T10:23:23.510Z,90.78
2019-01-28T10:25:51.785Z,90.81
2019-01-28T10:28:19.496Z,90.50
2019-01-28T10:30:47.690Z,90.45
2019-01-28T10:33:15.250Z,90.58
2019-01-28T10:35:44.146Z,90.63
2019-01-28T10:38:11.853Z,90.79
2019-01-28T10:40:39.988Z,90.33
2019-01-28T10:43:08.270Z,89.77
2019-01-28T10:45:35.939Z,89.38
2019-01-28T10:48:04.263Z,89.63
2019-01-28T10:50:31.912Z,90.17
2019-01-28T10:53:00.510Z,89.97
2019-01-28T10:55:28.231Z,90.06
2019-01-28T10:57:55.814Z,90.62
2019-01-28T11:00:34.946Z,90.43
2019-01-28T11:03:02.862Z,90.62
2019-01-28T11:05:35.463Z,90.51
2019-01-28T11:08:07.277Z,90.66
2019-01-28T11:10:38.105Z,90.91
2019-01-28T11:13:10.029Z,91.56
2019-01-28T11:15:38.801Z,91.35
2019-01-28T11:18:13.694Z,91.25
2019-01-28T11:20:41.544Z,91.20
2019-01-28T11:23:11.954Z,91.55
2019-01-28T11:25:42.182Z,90.72
2019-01-28T11:28:09.950Z,90.54
2019-01-28T11:30:47.526Z,90.86
2019-01-28T11:33:15.268Z,90.23
2019-01-28T11:35:43.229Z,90.09
2019-01-28T11:38:14.416Z,89.16
2019-01-28T11:40:42.118Z,89.21
2019-01-28T11:43:09.797Z,88.81
2019-01-28T11:45:41.807Z,87.97
2019-01-28T11:48:09.568Z,87.66
2019-01-28T11:50:37.246Z,87.48
2019-01-28T11:53:05.099Z,87.61
2019-01-28T11:55:32.782Z,87.04
2019-01-28T11:58:01.279Z,86.43
2019-01-28T12:00:48.469Z,85.08
2019-01-28T12:03:16.211Z,84.89
2019-01-28T12:05:44.225Z,85.26
2019-01-28T12:08:11.908Z,84.94
2019-01-28T12:10:39.548Z,84.82
2019-01-28T12:13:07.330Z,84.54
2019-01-28T12:15:34.972Z,84.70
2019-01-28T12:18:03.750Z,85.22
2019-01-28T12:20:31.389Z,84.53
2019-01-28T12:22:59.051Z,84.23
2019-01-28T12:25:26.728Z,84.13
2019-01-28T12:27:54.463Z,84.37
2019-01-28T12:30:24.636Z,84.39
2019-01-28T12:32:52.621Z,83.77
2019-01-28T12:35:20.386Z,84.01
2019-01-28T12:37:48.038Z,84.23
2019-01-28T12:40:15.906Z,85.04
2019-01-28T12:42:43.587Z,84.94
2019-01-28T12:45:13.548Z,85.13
2019-01-28T12:47:41.296Z,84.89
2019-01-28T12:50:08.948Z,84.73
2019-01-28T12:52:40.070Z,84.75
2019-01-28T12:55:10.488Z,84.73
2019-01-28T12:57:38.463Z,84.81
2019-01-28T13:00:10.449Z,84.90
2019-01-28T13:02:38.178Z,84.84
2019-01-28T13:05:07.924Z,84.26
2019-01-28T13:07:35.778Z,84.15
2019-01-28T13:10:04.980Z,84.13
2019-01-28T13:12:33.548Z,84.32
2019-01-28T13:15:01.333Z,84.43
2019-01-28T13:17:28.941Z,84.55
2019-01-28T13:19:56.641Z,83.57
2019-01-28T13:22:24.196Z,83.12
2019-01-28T13:24:51.789Z,82.81
2019-01-28T13:27:19.357Z,82.64
2019-01-28T13:29:46.969Z,81.56
2019-01-28T13:32:14.558Z,79.97
2019-01-28T13:34:42.167Z,80.32
2019-01-28T13:37:09.772Z,78.88
2019-01-28T13:39:38.083Z,78.35
2019-01-28T13:42:05.755Z,75.92
2019-01-28T13:44:35.243Z,76.98
2019-01-28T13:47:03.066Z,76.85
2019-01-28T13:49:37.984Z,73.92
2019-01-28T13:52:00.166Z,73.18
2019-01-28T13:54:27.816Z,75.92
2019-01-28T13:56:55.461Z,76.64
2019-01-28T13:59:24.910Z,76.25
2019-01-28T14:01:52.635Z,76.85
2019-01-28T14:04:20.273Z,76.85
2019-01-28T14:06:49.487Z,77.32
2019-01-28T14:09:17.183Z,78.82
2019-01-28T14:11:44.875Z,79.44
2019-01-28T14:14:12.617Z,79.60
2019-01-28T14:16:40.354Z,79.71
2019-01-28T14:19:07.944Z,81.04
2019-01-28T14:21:35.623Z,81.20
2019-01-28T14:24:03.617Z,81.59
2019-01-28T14:26:31.355Z,82.30
2019-01-28T14:28:58.990Z,83.42
2019-01-28T14:31:26.619Z,84.20
2019-01-28T14:33:54.211Z,84.85
2019-01-28T14:36:21.832Z,85.17
2019-01-28T14:38:49.570Z,85.38
2019-01-28T14:41:17.228Z,85.69
2019-01-28T14:43:44.896Z,85.51
2019-01-28T14:46:12.477Z,85.74
2019-01-28T14:48:40.095Z,85.44
2019-01-28T14:51:07.731Z,85.83
2019-01-28T14:53:35.327Z,86.40
2019-01-28T14:56:03.095Z,86.52
2019-01-28T14:58:30.698Z,86.71
2019-01-28T15:01:01.333Z,88.89
2019-01-28T15:03:28.983Z,88.45
2019-01-28T15:05:56.651Z,89.54
2019-01-28T15:08:24.451Z,88.79
2019-01-28T15:10:52.073Z,89.31
2019-01-28T15:13:22.263Z,90.31
2019-01-28T15:15:52.544Z,89.59
2019-01-28T15:18:20.118Z,89.20
2019-01-28T15:20:49.580Z,89.45
2019-01-28T15:23:17.293Z,89.84
2019-01-28T15:25:44.992Z,90.25
2019-01-28T15:28:12.546Z,90.43
2019-01-28T15:30:40.236Z,91.12
2019-01-28T15:33:07.974Z,91.40
2019-01-28T15:35:35.771Z,91.53
2019-01-28T15:38:03.961Z,91.48
2019-01-28T15:40:32.977Z,91.46
2019-01-28T15:43:00.619Z,90.56
2019-01-28T15:45:34.640Z,90.45
2019-01-28T15:48:02.696Z,90.44
2019-01-28T15:50:30.868Z,90.77
2019-01-28T15:52:59.104Z,91.16
2019-01-28T15:55:32.283Z,91.44
2019-01-28T15:58:00.190Z,91.86
2019-01-28T16:00:29.307Z,92.10
2019-01-28T16:02:57.376Z,92.27
2019-01-28T16:05:25.976Z,92.55
2019-01-28T16:07:53.716Z,92.71
2019-01-28T16:10:21.396Z,92.82
2019-01-28T16:12:48.987Z,92.96
2019-01-28T16:15:25.282Z,92.82
2019-01-28T16:17:53.956Z,92.63
2019-01-28T16:20:21.720Z,92.88
2019-01-28T16:22:49.561Z,92.71
2019-01-28T16:25:17.303Z,92.43
2019-01-28T16:27:45.042Z,92.21
2019-01-28T16:30:16.200Z,92.12
2019-01-28T16:32:45.588Z,92.00
2019-01-28T16:35:14.469Z,92.08
2019-01-28T16:37:42.680Z,91.92
2019-01-28T16:40:12.569Z,92.07
2019-01-28T16:42:40.950Z,92.37
2019-01-28T16:45:09.978Z,92.39
2019-01-28T16:47:38.178Z,92.43
2019-01-28T16:50:07.518Z,92.17
2019-01-28T16:52:35.684Z,92.14
2019-01-28T16:55:04.176Z,92.54
2019-01-28T16:57:33.106Z,92.44
2019-01-28T17:00:01.406Z,92.15
2019-01-28T17:02:29.472Z,91.99
2019-01-28T17:04:58.103Z,92.39
2019-01-28T17:07:25.905Z,92.32
2019-01-28T17:09:54.575Z,92.73
2019-01-28T17:12:22.486Z,93.92
2019-01-28T17:14:50.782Z,94.37
2019-01-28T17:17:18.744Z,94.16
2019-01-28T17:19:46.646Z,94.45
2019-01-28T17:22:14.653Z,94.32
2019-01-28T17:24:42.699Z,94.54
2019-01-28T17:27:10.628Z,95.00
2019-01-28T17:29:39.194Z,95.24
2019-01-28T17:32:10.239Z,95.31
2019-01-28T17:34:38.255Z,95.42
2019-01-28T17:37:06.154Z,95.78
2019-01-28T17:39:34.203Z,96.00
2019-01-28T17:42:02.340Z,95.85
2019-01-28T17:44:32.157Z,96.12
2019-01-28T17:47:00.267Z,96.99
2019-01-28T17:49:29.327Z,97.04
2019-01-28T17:51:57.170Z,97.15
2019-01-28T17:54:25.215Z,97.23
2019-01-28T17:56:53.409Z,97.50
2019-01-28T17:59:21.396Z,97.34
2019-01-28T18:01:49.394Z,97.36
2019-01-28T18:04:17.381Z,97.41
2019-01-28T18:06:45.121Z,97.33
2019-01-28T18:09:13.069Z,97.52
2019-01-28T18:11:40.783Z,97.85
2019-01-28T18:14:09.243Z,97.83
2019-01-28T18:16:36.946Z,97.92
2019-01-28T18:19:04.754Z,98.28
2019-01-28T18:21:35.013Z,98.39
2019-01-28T18:24:03.128Z,98.31
2019-01-28T18:26:31.924Z,98.19
2019-01-28T18:28:59.914Z,98.19
2019-01-28T18:31:27.679Z,98.08
2019-01-28T18:33:55.700Z,98.37
2019-01-28T18:36:23.786Z,98.67
2019-01-28T18:38:51.872Z,98.89
2019-01-28T18:41:20.129Z,99.01
2019-01-28T18:43:47.989Z,98.60
2019-01-28T18:46:16.069Z,98.66
2019-01-28T18:48:44.314Z,98.62
2019-01-28T18:51:12.582Z,98.78
2019-01-28T18:53:40.795Z,98.82
2019-01-28T18:56:08.803Z,98.79
2019-01-28T18:58:36.887Z,99.05
2019-01-28T19:01:05.321Z,98.99
2019-01-28T19:03:33.376Z,98.62
2019-01-28T19:06:06.049Z,98.39
2019-01-28T19:08:47.107Z,98.44
2019-01-28T19:11:36.168Z,98.38
2019-01-28T19:14:25.585Z,98.45
2019-01-28T19:17:04.775Z,98.84
2019-01-28T19:19:51.254Z,98.82
2019-01-28T19:22:24.166Z,98.92
2019-01-28T19:24:52.028Z,98.75
2019-01-28T19:27:19.691Z,98.80
2019-01-28T19:29:47.560Z,98.62
2019-01-28T19:32:16.686Z,98.46
2019-01-28T19:34:44.810Z,98.43
2019-01-28T19:37:12.728Z,98.27
2019-01-28T19:39:41.084Z,98.36
2019-01-28T19:42:09.207Z,98.68
2019-01-28T19:44:37.256Z,98.85
2019-01-28T19:47:05.183Z,98.96
2019-01-28T19:49:33.134Z,99.23
2019-01-28T19:52:01.226Z,99.27
2019-01-28T19:54:30.308Z,99.52
2019-01-28T19:56:58.238Z,99.88
2019-01-28T19:59:26.511Z,99.99
2019-01-28T20:01:55.606Z,100.00
2019-01-28T20:04:24.734Z,99.80
2019-01-28T20:06:52.958Z,99.30
2019-01-28T20:09:21.024Z,99.11
2019-01-28T20:11:49.023Z,99.23
2019-01-28T20:14:17.307Z,99.44
2019-01-28T20:16:45.539Z,99.42
2019-01-28T20:19:13.527Z,99.27
2019-01-28T20:21:42.513Z,99.03
2019-01-28T20:24:10.589Z,98.75
2019-01-28T20:26:39.727Z,98.85
2019-01-28T20:29:08.105Z,98.70
2019-01-28T20:31:36.140Z,99.00
2019-01-28T20:34:04.955Z,99.53
2019-01-28T20:36:32.952Z,99.62
2019-01-28T20:39:01.033Z,99.36
2019-01-28T20:41:30.894Z,99.46
2019-01-28T20:43:58.818Z,99.77
2019-01-28T20:46:27.134Z,99.80
2019-01-28T20:48:55.310Z,99.57
2019-01-28T20:51:23.188Z,99.27
2019-01-28T20:53:51.507Z,99.40
2019-01-28T20:56:19.522Z,99.20
2019-01-28T20:58:47.757Z,99.01
2019-01-28T21:01:15.753Z,98.88
2019-01-28T21:03:44.863Z,98.92
2019-01-28T21:06:12.826Z,98.91
2019-01-28T21:08:40.727Z,98.83
2019-01-28T21:11:08.737Z,99.18
2019-01-28T21:13:36.896Z,99.59
2019-01-28T21:16:04.973Z,99.69
2019-01-28T21:18:32.946Z,99.65
2019-01-28T21:21:01.075Z,99.53
2019-01-28T21:23:29.216Z,99.52
2019-01-28T21:25:57.593Z,99.54
2019-01-28T21:28:25.640Z,99.52
2019-01-28T21:30:53.731Z,99.55
2019-01-28T21:33:21.752Z,99.61
2019-01-28T21:36:07.914Z,99.82
2019-01-28T21:38:44.559Z,99.78
2019-01-28T21:41:12.883Z,99.61
2019-01-28T21:43:40.820Z,99.65
2019-01-28T21:46:09.170Z,99.48
2019-01-28T21:48:37.134Z,99.49
2019-01-28T21:51:05.170Z,99.76
2019-01-28T21:53:34.219Z,100.00
2019-01-28T21:56:02.194Z,100.00
2019-01-28T21:58:30.188Z,100.00
2019-01-28T22:00:58.741Z,99.79
2019-01-28T22:03:27.033Z,99.36
2019-01-28T22:05:55.065Z,99.26
2019-01-28T22:08:23.135Z,99.46
2019-01-28T22:10:51.202Z,99.49
2019-01-28T22:13:19.537Z,99.35
2019-01-28T22:15:47.438Z,99.45
2019-01-28T22:18:15.583Z,99.35
2019-01-28T22:20:43.629Z,99.49
2019-01-28T22:23:11.852Z,99.17
2019-01-28T22:25:40.129Z,99.26
2019-01-28T22:28:08.349Z,99.31
2019-01-28T22:30:36.359Z,99.15
2019-01-28T22:33:04.575Z,99.47
2019-01-28T22:35:32.763Z,99.57
2019-01-28T22:38:00.684Z,99.48
2019-01-28T22:40:28.659Z,99.45
2019-01-28T22:42:56.813Z,99.25
2019-01-28T22:45:24.826Z,99.00
2019-01-28T22:47:52.935Z,98.79
2019-01-28T22:50:20.876Z,98.59
2019-01-28T22:52:49.292Z,98.56
2019-01-28T22:55:19.040Z,98.40
2019-01-28T22:57:47.094Z,98.28
2019-01-28T23:00:46.544Z,98.38
2019-01-28T23:03:14.811Z,98.15
2019-01-28T23:05:42.721Z,98.40
2019-01-28T23:08:11.023Z,98.26
2019-01-28T23:10:38.895Z,98.41
2019-01-28T23:13:06.850Z,98.58
2019-01-28T23:15:35.089Z,98.66
2019-01-28T23:18:03.160Z,98.86
2019-01-28T23:20:31.096Z,98.88
2019-01-28T23:22:59.143Z,98.96
2019-01-28T23:25:27.146Z,99.04
2019-01-28T23:27:55.191Z,98.63
2019-01-28T23:30:23.511Z,98.80
2019-01-28T23:32:52.743Z,98.95
2019-01-28T23:35:20.693Z,99.16
2019-01-28T23:37:48.918Z,98.96
2019-01-28T23:40:16.961Z,98.85
2019-01-28T23:42:46.739Z,98.99
2019-01-28T23:45:14.772Z,98.99
2019-01-28T23:47:43.067Z,98.75
2019-01-28T23:50:11.013Z,98.80
2019-01-28T23:52:39.192Z,98.73
2019-01-28T23:55:07.262Z,98.55
2019-01-28T23:57:35.246Z,98.81
